sensor_id;sensor_type;location;lat;lon;timestamp;P1;durP1;ratioP1;P2;durP2;ratioP2
29934;SDS011;19905;53.370;-6.314;2023-04-23T00:00:36;46.70;;;27.25;;
29934;SDS011;19905;53.370;-6.314;2023-04-23T00:03:07;44.97;;;26.52;;
29934;SDS011;19905;53.370;-6.314;2023-04-23T00:05:41;44.80;;;25.70;;
29934;SDS011;19905;53.370;-6.314;2023-04-23T00:08:11;44.42;;;26.00;;
29934;SDS011;19905;53.370;-6.314;2023-04-23T00:10:43;45.80;;;26.05;;
29934;SDS011;19905;53.370;-6.314;2023-04-23T00:13:18;44.13;;;25.55;;
29934;SDS011;19905;53.370;-6.314;2023-04-23T00:15:48;33.13;;;19.52;;
29934;SDS011;19905;53.370;-6.314;2023-04-23T00:18:18;40.33;;;24.30;;
29934;SDS011;19905;53.370;-6.314;2023-04-23T00:20:48;45.00;;;26.63;;
29934;SDS011;19905;53.370;-6.314;2023-04-23T00:23:17;44.53;;;24.98;;
29934;SDS011;19905;53.370;-6.314;2023-04-23T00:25:46;38.97;;;24.00;;
29934;SDS011;19905;53.370;-6.314;2023-04-23T00:28:22;36.97;;;23.48;;
29934;SDS011;19905;53.370;-6.314;2023-04-23T00:30:51;42.75;;;25.05;;
29934;SDS011;19905;53.370;-6.314;2023-04-23T00:33:26;42.05;;;25.60;;
29934;SDS011;19905;53.370;-6.314;2023-04-23T00:35:56;42.97;;;24.67;;
29934;SDS011;19905;53.370;-6.314;2023-04-23T00:38:25;39.42;;;23.50;;
29934;SDS011;19905;53.370;-6.314;2023-04-23T00:41:00;38.63;;;24.17;;
29934;SDS011;19905;53.370;-6.314;2023-04-23T00:43:29;43.47;;;25.92;;
29934;SDS011;19905;53.370;-6.314;2023-04-23T00:46:00;44.08;;;26.40;;
29934;SDS011;19905;53.370;-6.314;2023-04-23T00:48:30;38.78;;;22.92;;
29934;SDS011;19905;53.370;-6.314;2023-04-23T00:51:05;40.40;;;23.83;;
29934;SDS011;19905;53.370;-6.314;2023-04-23T00:53:34;39.33;;;23.67;;
29934;SDS011;19905;53.370;-6.314;2023-04-23T00:56:03;38.28;;;23.75;;
29934;SDS011;19905;53.370;-6.314;2023-04-23T00:58:34;39.35;;;22.90;;
29934;SDS011;19905;53.370;-6.314;2023-04-23T01:01:03;40.05;;;23.00;;
29934;SDS011;19905;53.370;-6.314;2023-04-23T01:06:10;40.22;;;23.52;;
29934;SDS011;19905;53.370;-6.314;2023-04-23T01:08:39;41.65;;;23.30;;
29934;SDS011;19905;53.370;-6.314;2023-04-23T01:11:11;38.55;;;22.42;;
29934;SDS011;19905;53.370;-6.314;2023-04-23T01:13:43;39.67;;;23.85;;
29934;SDS011;19905;53.370;-6.314;2023-04-23T01:16:18;42.78;;;24.15;;
29934;SDS011;19905;53.370;-6.314;2023-04-23T01:21:21;40.50;;;23.23;;
29934;SDS011;19905;53.370;-6.314;2023-04-23T01:23:52;40.50;;;23.52;;
29934;SDS011;19905;53.370;-6.314;2023-04-23T01:26:21;42.80;;;23.27;;
29934;SDS011;19905;53.370;-6.314;2023-04-23T01:28:54;41.08;;;23.70;;
29934;SDS011;19905;53.370;-6.314;2023-04-23T01:31:22;42.72;;;24.27;;
29934;SDS011;19905;53.370;-6.314;2023-04-23T01:33:51;42.70;;;24.63;;
29934;SDS011;19905;53.370;-6.314;2023-04-23T01:36:25;42.53;;;24.83;;
29934;SDS011;19905;53.370;-6.314;2023-04-23T01:38:57;41.92;;;23.77;;
29934;SDS011;19905;53.370;-6.314;2023-04-23T01:44:01;39.63;;;22.60;;
29934;SDS011;19905;53.370;-6.314;2023-04-23T01:46:30;35.85;;;20.10;;
29934;SDS011;19905;53.370;-6.314;2023-04-23T01:49:01;25.25;;;14.65;;
29934;SDS011;19905;53.370;-6.314;2023-04-23T01:51:31;19.73;;;11.60;;
29934;SDS011;19905;53.370;-6.314;2023-04-23T01:54:01;17.23;;;10.65;;
29934;SDS011;19905;53.370;-6.314;2023-04-23T01:56:30;14.20;;;8.77;;
29934;SDS011;19905;53.370;-6.314;2023-04-23T01:59:01;15.43;;;8.90;;
29934;SDS011;19905;53.370;-6.314;2023-04-23T02:01:40;11.57;;;7.03;;
29934;SDS011;19905;53.370;-6.314;2023-04-23T02:04:12;8.25;;;5.13;;
29934;SDS011;19905;53.370;-6.314;2023-04-23T02:06:42;7.78;;;4.80;;
29934;SDS011;19905;53.370;-6.314;2023-04-23T02:09:15;7.30;;;4.22;;
29934;SDS011;19905;53.370;-6.314;2023-04-23T02:11:46;5.22;;;3.50;;
29934;SDS011;19905;53.370;-6.314;2023-04-23T02:14:18;4.50;;;2.90;;
29934;SDS011;19905;53.370;-6.314;2023-04-23T02:16:48;4.00;;;2.90;;
29934;SDS011;19905;53.370;-6.314;2023-04-23T02:19:17;4.22;;;2.95;;
29934;SDS011;19905;53.370;-6.314;2023-04-23T02:21:56;3.40;;;2.90;;
29934;SDS011;19905;53.370;-6.314;2023-04-23T02:27:04;4.45;;;3.10;;
29934;SDS011;19905;53.370;-6.314;2023-04-23T02:29:32;3.22;;;2.60;;
29934;SDS011;19905;53.370;-6.314;2023-04-23T02:32:02;4.93;;;3.00;;
29934;SDS011;19905;53.370;-6.314;2023-04-23T02:34:31;4.50;;;3.08;;
29934;SDS011;19905;53.370;-6.314;2023-04-23T02:36:59;4.65;;;2.95;;
29934;SDS011;19905;53.370;-6.314;2023-04-23T02:39:32;4.07;;;3.30;;
29934;SDS011;19905;53.370;-6.314;2023-04-23T02:42:02;3.80;;;3.05;;
29934;SDS011;19905;53.370;-6.314;2023-04-23T02:44:31;3.78;;;3.00;;
29934;SDS011;19905;53.370;-6.314;2023-04-23T02:47:00;6.15;;;3.00;;
29934;SDS011;19905;53.370;-6.314;2023-04-23T02:49:29;6.85;;;3.42;;
29934;SDS011;19905;53.370;-6.314;2023-04-23T02:51:58;4.47;;;3.25;;
29934;SDS011;19905;53.370;-6.314;2023-04-23T02:57:00;4.28;;;3.30;;
29934;SDS011;19905;53.370;-6.314;2023-04-23T02:59:30;4.72;;;3.60;;
29934;SDS011;19905;53.370;-6.314;2023-04-23T03:01:59;4.65;;;3.50;;
29934;SDS011;19905;53.370;-6.314;2023-04-23T03:04:27;5.20;;;3.50;;
29934;SDS011;19905;53.370;-6.314;2023-04-23T03:06:56;4.28;;;3.40;;
29934;SDS011;19905;53.370;-6.314;2023-04-23T03:09:25;6.43;;;4.05;;
29934;SDS011;19905;53.370;-6.314;2023-04-23T03:11:58;5.95;;;3.70;;
29934;SDS011;19905;53.370;-6.314;2023-04-23T03:14:28;5.95;;;3.70;;
29934;SDS011;19905;53.370;-6.314;2023-04-23T03:16:59;4.70;;;3.80;;
29934;SDS011;19905;53.370;-6.314;2023-04-23T03:19:28;5.85;;;4.20;;
29934;SDS011;19905;53.370;-6.314;2023-04-23T03:21:56;5.22;;;4.20;;
29934;SDS011;19905;53.370;-6.314;2023-04-23T03:24:25;5.68;;;4.32;;
29934;SDS011;19905;53.370;-6.314;2023-04-23T03:26:55;6.35;;;4.63;;
29934;SDS011;19905;53.370;-6.314;2023-04-23T03:29:31;6.07;;;4.65;;
29934;SDS011;19905;53.370;-6.314;2023-04-23T03:32:01;5.30;;;3.95;;
29934;SDS011;19905;53.370;-6.314;2023-04-23T03:34:35;6.18;;;4.40;;
29934;SDS011;19905;53.370;-6.314;2023-04-23T03:37:17;5.82;;;4.32;;
29934;SDS011;19905;53.370;-6.314;2023-04-23T03:39:47;6.05;;;4.28;;
29934;SDS011;19905;53.370;-6.314;2023-04-23T03:42:18;6.88;;;4.50;;
29934;SDS011;19905;53.370;-6.314;2023-04-23T03:44:47;6.65;;;4.53;;
29934;SDS011;19905;53.370;-6.314;2023-04-23T03:47:16;5.13;;;4.25;;
29934;SDS011;19905;53.370;-6.314;2023-04-23T03:49:46;5.70;;;4.40;;
29934;SDS011;19905;53.370;-6.314;2023-04-23T03:52:20;6.13;;;4.55;;
29934;SDS011;19905;53.370;-6.314;2023-04-23T03:54:49;5.85;;;4.20;;
29934;SDS011;19905;53.370;-6.314;2023-04-23T03:57:19;5.85;;;4.38;;
29934;SDS011;19905;53.370;-6.314;2023-04-23T04:00:05;5.22;;;4.00;;
29934;SDS011;19905;53.370;-6.314;2023-04-23T04:02:45;5.55;;;4.35;;
29934;SDS011;19905;53.370;-6.314;2023-04-23T04:05:15;6.80;;;4.32;;
29934;SDS011;19905;53.370;-6.314;2023-04-23T04:07:44;6.78;;;4.43;;
29934;SDS011;19905;53.370;-6.314;2023-04-23T04:10:14;6.80;;;4.32;;
29934;SDS011;19905;53.370;-6.314;2023-04-23T04:12:43;6.10;;;4.78;;
29934;SDS011;19905;53.370;-6.314;2023-04-23T04:15:19;6.22;;;4.95;;
29934;SDS011;19905;53.370;-6.314;2023-04-23T04:17:49;7.18;;;4.90;;
29934;SDS011;19905;53.370;-6.314;2023-04-23T04:20:18;8.25;;;5.35;;
29934;SDS011;19905;53.370;-6.314;2023-04-23T04:22:48;9.00;;;6.13;;
29934;SDS011;19905;53.370;-6.314;2023-04-23T04:25:24;9.00;;;5.80;;
29934;SDS011;19905;53.370;-6.314;2023-04-23T04:27:54;8.43;;;5.60;;
29934;SDS011;19905;53.370;-6.314;2023-04-23T04:32:56;9.88;;;6.75;;
29934;SDS011;19905;53.370;-6.314;2023-04-23T04:35:25;9.23;;;6.70;;
29934;SDS011;19905;53.370;-6.314;2023-04-23T04:37:54;9.93;;;6.68;;
29934;SDS011;19905;53.370;-6.314;2023-04-23T04:40:26;10.57;;;6.72;;
29934;SDS011;19905;53.370;-6.314;2023-04-23T04:42:57;9.90;;;7.00;;
29934;SDS011;19905;53.370;-6.314;2023-04-23T04:45:34;12.00;;;7.43;;
29934;SDS011;19905;53.370;-6.314;2023-04-23T04:48:02;11.52;;;7.05;;
29934;SDS011;19905;53.370;-6.314;2023-04-23T04:50:31;12.90;;;7.80;;
29934;SDS011;19905;53.370;-6.314;2023-04-23T04:53:00;12.70;;;8.20;;
29934;SDS011;19905;53.370;-6.314;2023-04-23T04:55:29;12.48;;;8.68;;
29934;SDS011;19905;53.370;-6.314;2023-04-23T04:57:57;15.88;;;9.00;;
29934;SDS011;19905;53.370;-6.314;2023-04-23T05:00:26;14.48;;;9.43;;
29934;SDS011;19905;53.370;-6.314;2023-04-23T05:02:57;15.15;;;9.73;;
29934;SDS011;19905;53.370;-6.314;2023-04-23T05:05:28;16.05;;;10.18;;
29934;SDS011;19905;53.370;-6.314;2023-04-23T05:07:57;17.52;;;10.88;;
29934;SDS011;19905;53.370;-6.314;2023-04-23T05:10:30;20.85;;;12.35;;
29934;SDS011;19905;53.370;-6.314;2023-04-23T05:12:59;22.35;;;13.02;;
29934;SDS011;19905;53.370;-6.314;2023-04-23T05:15:28;23.80;;;14.50;;
29934;SDS011;19905;53.370;-6.314;2023-04-23T05:18:05;25.48;;;15.50;;
29934;SDS011;19905;53.370;-6.314;2023-04-23T05:20:34;30.35;;;16.13;;
29934;SDS011;19905;53.370;-6.314;2023-04-23T05:23:05;26.88;;;16.55;;
29934;SDS011;19905;53.370;-6.314;2023-04-23T05:25:34;28.13;;;16.65;;
29934;SDS011;19905;53.370;-6.314;2023-04-23T05:28:02;28.50;;;17.27;;
29934;SDS011;19905;53.370;-6.314;2023-04-23T05:30:31;31.27;;;18.38;;
29934;SDS011;19905;53.370;-6.314;2023-04-23T05:33:00;31.42;;;19.02;;
29934;SDS011;19905;53.370;-6.314;2023-04-23T05:35:30;31.88;;;19.63;;
29934;SDS011;19905;53.370;-6.314;2023-04-23T05:37:58;32.78;;;19.88;;
29934;SDS011;19905;53.370;-6.314;2023-04-23T05:40:28;34.67;;;20.77;;
29934;SDS011;19905;53.370;-6.314;2023-04-23T05:42:58;36.85;;;22.05;;
29934;SDS011;19905;53.370;-6.314;2023-04-23T05:45:28;37.97;;;22.67;;
29934;SDS011;19905;53.370;-6.314;2023-04-23T05:47:58;37.53;;;22.33;;
29934;SDS011;19905;53.370;-6.314;2023-04-23T05:50:35;39.17;;;22.05;;
29934;SDS011;19905;53.370;-6.314;2023-04-23T05:53:03;41.00;;;23.58;;
29934;SDS011;19905;53.370;-6.314;2023-04-23T05:55:35;38.10;;;22.63;;
29934;SDS011;19905;53.370;-6.314;2023-04-23T05:58:04;40.72;;;24.33;;
29934;SDS011;19905;53.370;-6.314;2023-04-23T06:00:32;40.65;;;24.33;;
29934;SDS011;19905;53.370;-6.314;2023-04-23T06:03:02;41.53;;;24.98;;
29934;SDS011;19905;53.370;-6.314;2023-04-23T06:05:34;45.03;;;25.20;;
29934;SDS011;19905;53.370;-6.314;2023-04-23T06:08:10;43.95;;;25.30;;
29934;SDS011;19905;53.370;-6.314;2023-04-23T06:10:38;43.65;;;26.08;;
29934;SDS011;19905;53.370;-6.314;2023-04-23T06:13:09;44.28;;;24.67;;
29934;SDS011;19905;53.370;-6.314;2023-04-23T06:15:38;43.80;;;24.42;;
29934;SDS011;19905;53.370;-6.314;2023-04-23T06:18:08;40.15;;;23.58;;
29934;SDS011;19905;53.370;-6.314;2023-04-23T06:20:39;38.08;;;22.75;;
29934;SDS011;19905;53.370;-6.314;2023-04-23T06:23:11;39.83;;;22.67;;
29934;SDS011;19905;53.370;-6.314;2023-04-23T06:25:40;36.88;;;21.83;;
29934;SDS011;19905;53.370;-6.314;2023-04-23T06:28:11;33.83;;;21.13;;
29934;SDS011;19905;53.370;-6.314;2023-04-23T06:30:40;36.00;;;20.60;;
29934;SDS011;19905;53.370;-6.314;2023-04-23T06:33:10;32.60;;;20.05;;
29934;SDS011;19905;53.370;-6.314;2023-04-23T06:35:43;30.98;;;19.33;;
29934;SDS011;19905;53.370;-6.314;2023-04-23T06:38:14;30.17;;;18.92;;
29934;SDS011;19905;53.370;-6.314;2023-04-23T06:40:46;31.05;;;18.35;;
29934;SDS011;19905;53.370;-6.314;2023-04-23T06:43:15;28.30;;;17.45;;
29934;SDS011;19905;53.370;-6.314;2023-04-23T06:45:43;30.25;;;17.77;;
29934;SDS011;19905;53.370;-6.314;2023-04-23T06:48:12;29.50;;;18.30;;
29934;SDS011;19905;53.370;-6.314;2023-04-23T06:50:44;30.25;;;18.02;;
29934;SDS011;19905;53.370;-6.314;2023-04-23T06:53:14;27.42;;;17.33;;
29934;SDS011;19905;53.370;-6.314;2023-04-23T06:55:42;26.95;;;17.10;;
29934;SDS011;19905;53.370;-6.314;2023-04-23T06:58:11;26.15;;;16.85;;
29934;SDS011;19905;53.370;-6.314;2023-04-23T07:00:44;29.33;;;17.65;;
29934;SDS011;19905;53.370;-6.314;2023-04-23T07:03:13;27.38;;;17.27;;
29934;SDS011;19905;53.370;-6.314;2023-04-23T07:05:49;28.55;;;17.33;;
29934;SDS011;19905;53.370;-6.314;2023-04-23T07:08:18;26.70;;;17.23;;
29934;SDS011;19905;53.370;-6.314;2023-04-23T07:10:48;26.88;;;17.30;;
29934;SDS011;19905;53.370;-6.314;2023-04-23T07:13:19;27.85;;;17.58;;
29934;SDS011;19905;53.370;-6.314;2023-04-23T07:15:53;29.40;;;17.98;;
29934;SDS011;19905;53.370;-6.314;2023-04-23T07:18:23;28.45;;;17.77;;
29934;SDS011;19905;53.370;-6.314;2023-04-23T07:20:55;28.83;;;18.00;;
29934;SDS011;19905;53.370;-6.314;2023-04-23T07:23:25;26.58;;;17.17;;
29934;SDS011;19905;53.370;-6.314;2023-04-23T07:25:54;24.58;;;15.73;;
29934;SDS011;19905;53.370;-6.314;2023-04-23T07:28:23;22.40;;;14.90;;
29934;SDS011;19905;53.370;-6.314;2023-04-23T07:30:51;24.45;;;15.75;;
29934;SDS011;19905;53.370;-6.314;2023-04-23T07:33:27;26.95;;;15.10;;
29934;SDS011;19905;53.370;-6.314;2023-04-23T07:35:58;24.63;;;15.63;;
29934;SDS011;19905;53.370;-6.314;2023-04-23T07:38:27;24.02;;;14.80;;
29934;SDS011;19905;53.370;-6.314;2023-04-23T07:40:56;22.23;;;14.52;;
29934;SDS011;19905;53.370;-6.314;2023-04-23T07:43:25;21.70;;;14.55;;
29934;SDS011;19905;53.370;-6.314;2023-04-23T07:45:54;21.60;;;14.27;;
29934;SDS011;19905;53.370;-6.314;2023-04-23T07:48:24;21.08;;;13.27;;
29934;SDS011;19905;53.370;-6.314;2023-04-23T07:50:53;23.02;;;14.15;;
29934;SDS011;19905;53.370;-6.314;2023-04-23T07:53:26;22.92;;;14.88;;
29934;SDS011;19905;53.370;-6.314;2023-04-23T07:56:00;25.20;;;15.25;;
29934;SDS011;19905;53.370;-6.314;2023-04-23T07:58:29;21.63;;;14.43;;
29934;SDS011;19905;53.370;-6.314;2023-04-23T08:01:00;20.52;;;14.23;;
29934;SDS011;19905;53.370;-6.314;2023-04-23T08:03:29;21.25;;;13.70;;
29934;SDS011;19905;53.370;-6.314;2023-04-23T08:05:59;20.17;;;14.30;;
29934;SDS011;19905;53.370;-6.314;2023-04-23T08:08:33;21.15;;;13.75;;
29934;SDS011;19905;53.370;-6.314;2023-04-23T08:11:01;21.95;;;14.45;;
29934;SDS011;19905;53.370;-6.314;2023-04-23T08:13:30;22.10;;;14.45;;
29934;SDS011;19905;53.370;-6.314;2023-04-23T08:15:58;18.92;;;13.50;;
29934;SDS011;19905;53.370;-6.314;2023-04-23T08:18:27;20.48;;;13.25;;
29934;SDS011;19905;53.370;-6.314;2023-04-23T08:20:57;23.33;;;14.98;;
29934;SDS011;19905;53.370;-6.314;2023-04-23T08:23:25;22.35;;;14.18;;
29934;SDS011;19905;53.370;-6.314;2023-04-23T08:25:56;21.70;;;14.38;;
29934;SDS011;19905;53.370;-6.314;2023-04-23T08:28:25;20.13;;;13.68;;
29934;SDS011;19905;53.370;-6.314;2023-04-23T08:30:54;20.48;;;13.23;;
29934;SDS011;19905;53.370;-6.314;2023-04-23T08:33:23;18.48;;;12.57;;
29934;SDS011;19905;53.370;-6.314;2023-04-23T08:35:51;23.08;;;13.68;;
29934;SDS011;19905;53.370;-6.314;2023-04-23T08:38:20;22.80;;;13.70;;
29934;SDS011;19905;53.370;-6.314;2023-04-23T08:40:49;18.95;;;12.15;;
29934;SDS011;19905;53.370;-6.314;2023-04-23T08:43:26;21.65;;;12.85;;
29934;SDS011;19905;53.370;-6.314;2023-04-23T08:46:00;17.80;;;11.80;;
29934;SDS011;19905;53.370;-6.314;2023-04-23T08:48:32;19.73;;;12.50;;
29934;SDS011;19905;53.370;-6.314;2023-04-23T08:51:01;18.85;;;12.23;;
29934;SDS011;19905;53.370;-6.314;2023-04-23T08:53:33;18.63;;;11.77;;
29934;SDS011;19905;53.370;-6.314;2023-04-23T08:56:05;15.65;;;11.02;;
29934;SDS011;19905;53.370;-6.314;2023-04-23T08:58:37;16.77;;;11.23;;
29934;SDS011;19905;53.370;-6.314;2023-04-23T09:01:07;17.58;;;11.57;;
29934;SDS011;19905;53.370;-6.314;2023-04-23T09:03:38;16.40;;;11.48;;
29934;SDS011;19905;53.370;-6.314;2023-04-23T09:06:09;14.38;;;10.52;;
29934;SDS011;19905;53.370;-6.314;2023-04-23T09:08:37;15.70;;;10.93;;
29934;SDS011;19905;53.370;-6.314;2023-04-23T09:11:06;14.45;;;9.38;;
29934;SDS011;19905;53.370;-6.314;2023-04-23T09:13:37;15.27;;;9.40;;
29934;SDS011;19905;53.370;-6.314;2023-04-23T09:16:07;15.88;;;10.43;;
29934;SDS011;19905;53.370;-6.314;2023-04-23T09:18:36;15.52;;;9.82;;
29934;SDS011;19905;53.370;-6.314;2023-04-23T09:21:05;14.45;;;10.70;;
29934;SDS011;19905;53.370;-6.314;2023-04-23T09:23:37;11.93;;;8.93;;
29934;SDS011;19905;53.370;-6.314;2023-04-23T09:26:07;14.30;;;8.73;;
29934;SDS011;19905;53.370;-6.314;2023-04-23T09:28:36;13.27;;;9.32;;
29934;SDS011;19905;53.370;-6.314;2023-04-23T09:31:07;12.45;;;8.82;;
29934;SDS011;19905;53.370;-6.314;2023-04-23T09:33:35;14.10;;;9.23;;
29934;SDS011;19905;53.370;-6.314;2023-04-23T09:36:07;11.25;;;8.30;;
29934;SDS011;19905;53.370;-6.314;2023-04-23T09:38:38;13.88;;;9.10;;
29934;SDS011;19905;53.370;-6.314;2023-04-23T09:41:19;12.32;;;8.68;;
29934;SDS011;19905;53.370;-6.314;2023-04-23T09:43:51;11.05;;;7.97;;
29934;SDS011;19905;53.370;-6.314;2023-04-23T09:46:33;11.95;;;8.65;;
29934;SDS011;19905;53.370;-6.314;2023-04-23T09:49:03;14.80;;;8.32;;
29934;SDS011;19905;53.370;-6.314;2023-04-23T09:51:34;11.32;;;8.30;;
29934;SDS011;19905;53.370;-6.314;2023-04-23T09:54:09;11.88;;;7.93;;
29934;SDS011;19905;53.370;-6.314;2023-04-23T09:56:39;12.27;;;8.95;;
29934;SDS011;19905;53.370;-6.314;2023-04-23T10:02:13;14.43;;;8.63;;
29934;SDS011;19905;53.370;-6.314;2023-04-23T10:04:43;11.98;;;8.70;;
29934;SDS011;19905;53.370;-6.314;2023-04-23T10:07:12;12.82;;;9.13;;
29934;SDS011;19905;53.370;-6.314;2023-04-23T10:09:46;17.02;;;9.70;;
29934;SDS011;19905;53.370;-6.314;2023-04-23T10:12:14;12.90;;;9.27;;
29934;SDS011;19905;53.370;-6.314;2023-04-23T10:14:49;15.02;;;9.82;;
29934;SDS011;19905;53.370;-6.314;2023-04-23T10:17:20;13.77;;;9.73;;
29934;SDS011;19905;53.370;-6.314;2023-04-23T10:19:48;15.50;;;9.48;;
29934;SDS011;19905;53.370;-6.314;2023-04-23T10:22:18;13.20;;;9.45;;
29934;SDS011;19905;53.370;-6.314;2023-04-23T10:24:51;13.43;;;9.13;;
29934;SDS011;19905;53.370;-6.314;2023-04-23T10:27:25;12.68;;;8.82;;
29934;SDS011;19905;53.370;-6.314;2023-04-23T10:30:17;12.85;;;7.88;;
29934;SDS011;19905;53.370;-6.314;2023-04-23T10:32:48;10.93;;;7.45;;
29934;SDS011;19905;53.370;-6.314;2023-04-23T10:35:17;11.63;;;8.23;;
29934;SDS011;19905;53.370;-6.314;2023-04-23T10:37:45;12.85;;;8.25;;
29934;SDS011;19905;53.370;-6.314;2023-04-23T10:40:18;9.77;;;6.32;;
29934;SDS011;19905;53.370;-6.314;2023-04-23T10:42:48;9.45;;;7.43;;
29934;SDS011;19905;53.370;-6.314;2023-04-23T10:45:19;12.00;;;8.13;;
29934;SDS011;19905;53.370;-6.314;2023-04-23T10:47:51;10.85;;;8.20;;
29934;SDS011;19905;53.370;-6.314;2023-04-23T10:50:23;11.32;;;8.40;;
29934;SDS011;19905;53.370;-6.314;2023-04-23T10:52:52;12.27;;;8.63;;
29934;SDS011;19905;53.370;-6.314;2023-04-23T10:55:25;10.68;;;7.90;;
29934;SDS011;19905;53.370;-6.314;2023-04-23T10:57:59;10.68;;;7.10;;
29934;SDS011;19905;53.370;-6.314;2023-04-23T11:00:42;8.50;;;6.07;;
29934;SDS011;19905;53.370;-6.314;2023-04-23T11:03:28;8.32;;;6.45;;
29934;SDS011;19905;53.370;-6.314;2023-04-23T11:06:01;7.88;;;6.30;;
29934;SDS011;19905;53.370;-6.314;2023-04-23T11:08:31;8.13;;;6.38;;
29934;SDS011;19905;53.370;-6.314;2023-04-23T11:11:05;9.50;;;6.80;;
29934;SDS011;19905;53.370;-6.314;2023-04-23T11:13:35;9.43;;;7.10;;
29934;SDS011;19905;53.370;-6.314;2023-04-23T11:16:21;10.68;;;7.25;;
29934;SDS011;19905;53.370;-6.314;2023-04-23T11:18:54;8.45;;;6.40;;
29934;SDS011;19905;53.370;-6.314;2023-04-23T11:24:29;9.90;;;7.20;;
29934;SDS011;19905;53.370;-6.314;2023-04-23T11:26:58;8.50;;;6.75;;
29934;SDS011;19905;53.370;-6.314;2023-04-23T11:29:31;8.70;;;6.85;;
29934;SDS011;19905;53.370;-6.314;2023-04-23T11:32:01;13.43;;;7.28;;
29934;SDS011;19905;53.370;-6.314;2023-04-23T11:34:34;9.00;;;7.35;;
29934;SDS011;19905;53.370;-6.314;2023-04-23T11:37:03;9.73;;;7.10;;
29934;SDS011;19905;53.370;-6.314;2023-04-23T11:39:32;11.57;;;7.85;;
29934;SDS011;19905;53.370;-6.314;2023-04-23T11:42:01;10.65;;;8.05;;
29934;SDS011;19905;53.370;-6.314;2023-04-23T11:44:32;10.05;;;7.15;;
29934;SDS011;19905;53.370;-6.314;2023-04-23T11:47:02;10.52;;;7.78;;
29934;SDS011;19905;53.370;-6.314;2023-04-23T11:49:31;8.77;;;6.80;;
29934;SDS011;19905;53.370;-6.314;2023-04-23T11:52:00;10.52;;;6.97;;
29934;SDS011;19905;53.370;-6.314;2023-04-23T11:54:28;9.20;;;6.53;;
29934;SDS011;19905;53.370;-6.314;2023-04-23T11:56:57;9.05;;;6.57;;
29934;SDS011;19905;53.370;-6.314;2023-04-23T11:59:26;8.60;;;6.05;;
29934;SDS011;19905;53.370;-6.314;2023-04-23T12:01:55;10.00;;;6.50;;
29934;SDS011;19905;53.370;-6.314;2023-04-23T12:04:28;9.10;;;6.70;;
29934;SDS011;19905;53.370;-6.314;2023-04-23T12:06:58;9.05;;;7.00;;
29934;SDS011;19905;53.370;-6.314;2023-04-23T12:09:35;12.73;;;7.18;;
29934;SDS011;19905;53.370;-6.314;2023-04-23T12:12:04;9.88;;;7.03;;
29934;SDS011;19905;53.370;-6.314;2023-04-23T12:14:33;10.10;;;6.70;;
29934;SDS011;19905;53.370;-6.314;2023-04-23T12:17:07;12.00;;;7.28;;
29934;SDS011;19905;53.370;-6.314;2023-04-23T12:19:38;8.75;;;6.72;;
29934;SDS011;19905;53.370;-6.314;2023-04-23T12:22:10;10.02;;;6.90;;
29934;SDS011;19905;53.370;-6.314;2023-04-23T12:24:45;10.52;;;6.85;;
29934;SDS011;19905;53.370;-6.314;2023-04-23T12:27:17;8.93;;;7.07;;
29934;SDS011;19905;53.370;-6.314;2023-04-23T12:29:48;9.20;;;6.55;;
29934;SDS011;19905;53.370;-6.314;2023-04-23T12:32:26;8.13;;;6.50;;
29934;SDS011;19905;53.370;-6.314;2023-04-23T12:34:56;8.80;;;6.90;;
29934;SDS011;19905;53.370;-6.314;2023-04-23T12:37:27;8.70;;;5.93;;
29934;SDS011;19905;53.370;-6.314;2023-04-23T12:39:57;8.35;;;5.60;;
29934;SDS011;19905;53.370;-6.314;2023-04-23T12:42:26;7.55;;;5.45;;
29934;SDS011;19905;53.370;-6.314;2023-04-23T12:45:03;9.82;;;4.85;;
29934;SDS011;19905;53.370;-6.314;2023-04-23T12:47:33;7.65;;;5.40;;
29934;SDS011;19905;53.370;-6.314;2023-04-23T12:50:04;8.10;;;5.68;;
29934;SDS011;19905;53.370;-6.314;2023-04-23T12:52:34;8.88;;;6.07;;
29934;SDS011;19905;53.370;-6.314;2023-04-23T12:55:04;9.20;;;5.82;;
29934;SDS011;19905;53.370;-6.314;2023-04-23T12:57:33;9.30;;;5.90;;
29934;SDS011;19905;53.370;-6.314;2023-04-23T13:00:02;9.18;;;6.18;;
29934;SDS011;19905;53.370;-6.314;2023-04-23T13:02:31;9.38;;;6.03;;
29934;SDS011;19905;53.370;-6.314;2023-04-23T13:05:00;7.80;;;5.30;;
29934;SDS011;19905;53.370;-6.314;2023-04-23T13:07:30;6.85;;;5.40;;
29934;SDS011;19905;53.370;-6.314;2023-04-23T13:09:58;7.30;;;5.25;;
29934;SDS011;19905;53.370;-6.314;2023-04-23T13:12:27;9.80;;;6.30;;
29934;SDS011;19905;53.370;-6.314;2023-04-23T13:14:56;8.77;;;6.43;;
29934;SDS011;19905;53.370;-6.314;2023-04-23T13:17:25;10.70;;;6.75;;
29934;SDS011;19905;53.370;-6.314;2023-04-23T13:19:54;12.18;;;8.02;;
29934;SDS011;19905;53.370;-6.314;2023-04-23T13:22:23;12.43;;;7.88;;
29934;SDS011;19905;53.370;-6.314;2023-04-23T13:24:56;11.25;;;7.45;;
29934;SDS011;19905;53.370;-6.314;2023-04-23T13:27:27;10.93;;;6.90;;
29934;SDS011;19905;53.370;-6.314;2023-04-23T13:29:56;8.43;;;6.82;;
29934;SDS011;19905;53.370;-6.314;2023-04-23T13:32:25;8.45;;;6.45;;
29934;SDS011;19905;53.370;-6.314;2023-04-23T13:34:57;10.23;;;7.05;;
29934;SDS011;19905;53.370;-6.314;2023-04-23T13:37:31;9.25;;;6.50;;
29934;SDS011;19905;53.370;-6.314;2023-04-23T13:40:01;12.57;;;7.78;;
29934;SDS011;19905;53.370;-6.314;2023-04-23T13:42:29;10.70;;;7.15;;
29934;SDS011;19905;53.370;-6.314;2023-04-23T13:44:59;10.00;;;6.88;;
29934;SDS011;19905;53.370;-6.314;2023-04-23T13:47:30;9.43;;;7.03;;
29934;SDS011;19905;53.370;-6.314;2023-04-23T13:50:00;7.53;;;5.78;;
29934;SDS011;19905;53.370;-6.314;2023-04-23T13:52:32;7.88;;;5.72;;
29934;SDS011;19905;53.370;-6.314;2023-04-23T13:55:02;9.90;;;6.32;;
29934;SDS011;19905;53.370;-6.314;2023-04-23T13:57:33;8.73;;;5.95;;
29934;SDS011;19905;53.370;-6.314;2023-04-23T14:00:01;10.45;;;6.20;;
29934;SDS011;19905;53.370;-6.314;2023-04-23T14:02:31;8.85;;;5.85;;
29934;SDS011;19905;53.370;-6.314;2023-04-23T14:05:14;7.47;;;5.68;;
29934;SDS011;19905;53.370;-6.314;2023-04-23T14:07:43;8.27;;;5.80;;
29934;SDS011;19905;53.370;-6.314;2023-04-23T14:10:13;7.72;;;5.90;;
29934;SDS011;19905;53.370;-6.314;2023-04-23T14:12:42;8.35;;;5.57;;
29934;SDS011;19905;53.370;-6.314;2023-04-23T14:15:11;9.35;;;5.13;;
29934;SDS011;19905;53.370;-6.314;2023-04-23T14:17:40;6.90;;;5.10;;
29934;SDS011;19905;53.370;-6.314;2023-04-23T14:20:10;7.35;;;6.00;;
29934;SDS011;19905;53.370;-6.314;2023-04-23T14:22:41;8.10;;;5.50;;
29934;SDS011;19905;53.370;-6.314;2023-04-23T14:25:13;9.25;;;5.80;;
29934;SDS011;19905;53.370;-6.314;2023-04-23T14:27:51;8.45;;;5.55;;
29934;SDS011;19905;53.370;-6.314;2023-04-23T14:30:23;6.65;;;4.95;;
29934;SDS011;19905;53.370;-6.314;2023-04-23T14:32:53;8.27;;;5.40;;
29934;SDS011;19905;53.370;-6.314;2023-04-23T14:35:22;10.30;;;5.60;;
29934;SDS011;19905;53.370;-6.314;2023-04-23T14:38:08;6.47;;;5.28;;
29934;SDS011;19905;53.370;-6.314;2023-04-23T14:40:38;5.68;;;4.55;;
29934;SDS011;19905;53.370;-6.314;2023-04-23T14:43:07;6.03;;;4.47;;
29934;SDS011;19905;53.370;-6.314;2023-04-23T14:45:41;5.70;;;4.07;;
29934;SDS011;19905;53.370;-6.314;2023-04-23T14:48:09;5.53;;;3.92;;
29934;SDS011;19905;53.370;-6.314;2023-04-23T14:50:38;6.20;;;4.05;;
29934;SDS011;19905;53.370;-6.314;2023-04-23T14:53:06;5.78;;;4.25;;
29934;SDS011;19905;53.370;-6.314;2023-04-23T14:55:37;11.80;;;7.60;;
29934;SDS011;19905;53.370;-6.314;2023-04-23T14:58:08;9.95;;;6.32;;
29934;SDS011;19905;53.370;-6.314;2023-04-23T15:00:37;11.30;;;5.93;;
29934;SDS011;19905;53.370;-6.314;2023-04-23T15:03:06;11.27;;;6.82;;